createdAt,value
2022-10-01T00:02:06.851Z,12.15
2022-10-01T00:04:37.934Z,13.32
2022-10-01T00:07:09.559Z,14.57
2022-10-01T00:09:37.285Z,13.43
2022-10-01T00:12:04.923Z,14.02
2022-10-01T00:14:32.640Z,12.95
2022-10-01T00:17:00.442Z,13.73
2022-10-01T00:19:28.072Z,14.55
2022-10-01T00:21:55.407Z,14.07
2022-10-01T00:24:23.066Z,12.98
2022-10-01T00:26:50.386Z,13.65
2022-10-01T00:29:17.809Z,12.57
2022-10-01T00:31:45.479Z,13.20
2022-10-01T00:34:15.255Z,13.32
2022-10-01T00:36:42.755Z,14.35
2022-10-01T00:39:11.905Z,14.10
2022-10-01T00:41:39.423Z,13.57
2022-10-01T00:44:29.091Z,13.85
2022-10-01T00:47:10.634Z,14.95
2022-10-01T00:49:39.456Z,13.38
2022-10-01T00:52:11.007Z,13.30
2022-10-01T00:54:42.697Z,12.40
2022-10-01T00:57:10.858Z,12.50
2022-10-01T00:59:38.272Z,12.43
2022-10-01T01:02:05.767Z,11.88
2022-10-01T01:04:33.490Z,12.25
2022-10-01T01:07:03.011Z,12.13
2022-10-01T01:09:39.770Z,13.52
2022-10-01T01:12:12.948Z,11.73
2022-10-01T01:14:46.011Z,12.98
2022-10-01T01:17:22.319Z,12.30
2022-10-01T01:20:29.735Z,12.23
2022-10-01T01:23:20.455Z,11.40
2022-10-01T01:26:04.897Z,11.98
2022-10-01T01:28:40.093Z,11.15
2022-10-01T01:31:10.124Z,12.55
2022-10-01T01:33:39.604Z,12.60
2022-10-01T01:36:16.253Z,12.20
2022-10-01T01:38:49.222Z,12.00
2022-10-01T01:41:17.933Z,12.18
2022-10-01T01:43:48.596Z,11.60
2022-10-01T01:46:18.778Z,11.80
2022-10-01T01:48:51.003Z,11.73
2022-10-01T01:51:41.653Z,12.23
2022-10-01T01:54:09.606Z,11.50
2022-10-01T01:56:37.197Z,11.95
2022-10-01T01:59:04.847Z,11.77
2022-10-01T02:01:41.296Z,11.57
2022-10-01T02:04:28.385Z,12.25
2022-10-01T02:07:07.869Z,11.57
2022-10-01T02:09:44.441Z,11.73
2022-10-01T02:12:22.947Z,11.48
2022-10-01T02:14:55.074Z,11.93
2022-10-01T02:17:34.557Z,11.48
2022-10-01T02:20:18.270Z,12.00
2022-10-01T02:22:48.758Z,11.63
2022-10-01T02:25:17.716Z,11.57
2022-10-01T02:27:53.664Z,11.20
2022-10-01T02:30:21.463Z,11.18
2022-10-01T02:32:50.220Z,11.80
2022-10-01T02:35:19.507Z,12.10
2022-10-01T02:37:49.804Z,11.12
2022-10-01T02:40:21.079Z,11.77
2022-10-01T02:42:50.284Z,12.18
2022-10-01T02:45:24.026Z,11.95
2022-10-01T02:47:57.273Z,12.40
2022-10-01T02:50:27.888Z,13.35
2022-10-01T02:53:07.175Z,12.88
2022-10-01T02:55:36.942Z,12.60
2022-10-01T02:58:05.386Z,13.15
2022-10-01T03:00:33.080Z,13.05
2022-10-01T03:03:00.725Z,13.98
2022-10-01T03:05:28.477Z,14.07
2022-10-01T03:07:55.858Z,13.60
2022-10-01T03:10:23.346Z,13.38
2022-10-01T03:12:51.079Z,13.05
2022-10-01T03:15:19.341Z,13.27
2022-10-01T03:17:53.923Z,13.93
2022-10-01T03:20:22.503Z,14.40
2022-10-01T03:22:50.106Z,14.05
2022-10-01T03:25:17.495Z,14.63
2022-10-01T03:27:46.581Z,14.85
2022-10-01T03:30:14.070Z,14.73
2022-10-01T03:32:41.804Z,14.38
2022-10-01T03:35:09.818Z,13.77
2022-10-01T03:37:37.228Z,13.93
2022-10-01T03:40:05.095Z,13.82
2022-10-01T03:42:33.007Z,14.43
2022-10-01T03:45:00.775Z,14.00
2022-10-01T03:47:28.279Z,14.18
2022-10-01T03:49:55.942Z,14.20
2022-10-01T03:52:23.497Z,13.52
2022-10-01T03:54:50.843Z,13.98
2022-10-01T03:57:18.542Z,13.62
2022-10-01T03:59:45.900Z,14.00
2022-10-01T04:02:13.545Z,14.13
2022-10-01T04:04:41.242Z,14.48
2022-10-01T04:07:08.916Z,14.20
2022-10-01T04:09:37.599Z,14.10
2022-10-01T04:12:05.995Z,14.57
2022-10-01T04:14:33.559Z,12.75
2022-10-01T04:17:00.927Z,12.82
2022-10-01T04:19:28.561Z,13.82
2022-10-01T04:21:55.959Z,13.13
2022-10-01T04:24:23.339Z,13.80
2022-10-01T04:26:51.879Z,12.73
2022-10-01T04:29:19.241Z,12.43
2022-10-01T04:31:46.760Z,12.90
2022-10-01T04:34:14.440Z,11.90
2022-10-01T04:36:41.818Z,11.63
2022-10-01T04:39:09.378Z,11.23
2022-10-01T04:41:37.384Z,10.85
2022-10-01T04:44:05.356Z,10.85
2022-10-01T04:46:32.726Z,11.45
2022-10-01T04:49:01.118Z,10.90
2022-10-01T04:51:28.466Z,11.12
2022-10-01T04:53:55.845Z,11.05
2022-10-01T04:56:23.480Z,11.30
2022-10-01T04:58:50.981Z,11.02
2022-10-01T05:01:18.459Z,10.63
2022-10-01T05:03:47.250Z,10.52
2022-10-01T05:06:14.702Z,11.07
2022-10-01T05:08:42.461Z,11.18
2022-10-01T05:11:10.501Z,11.35
2022-10-01T05:13:37.949Z,10.75
2022-10-01T05:16:05.369Z,12.07
2022-10-01T05:18:33.088Z,12.00
2022-10-01T05:21:05.487Z,10.45
2022-10-01T05:23:33.659Z,10.25
2022-10-01T05:26:01.089Z,9.93
2022-10-01T05:28:28.508Z,10.80
2022-10-01T05:31:00.527Z,11.10
2022-10-01T05:33:29.001Z,11.25
2022-10-01T05:35:59.920Z,12.65
2022-10-01T05:38:27.372Z,10.77
2022-10-01T05:40:54.699Z,11.40
2022-10-01T05:43:22.383Z,11.52
2022-10-01T05:45:51.319Z,12.57
2022-10-01T05:48:18.983Z,12.00
2022-10-01T05:50:46.755Z,11.50
2022-10-01T05:53:15.759Z,12.20
2022-10-01T05:55:43.140Z,11.25
2022-10-01T05:58:12.485Z,11.98
2022-10-01T06:00:41.482Z,12.05
2022-10-01T06:03:12.722Z,12.30
2022-10-01T06:05:40.351Z,12.32
2022-10-01T06:08:09.668Z,11.85
2022-10-01T06:10:37.988Z,11.90
2022-10-01T06:13:06.148Z,11.38
2022-10-01T06:15:38.316Z,11.82
2022-10-01T06:18:10.434Z,12.50
2022-10-01T06:20:39.031Z,12.07
2022-10-01T06:23:11.287Z,10.90
2022-10-01T06:25:40.664Z,11.82
2022-10-01T06:28:09.943Z,11.50
2022-10-01T06:30:38.741Z,11.50
2022-10-01T06:33:09.054Z,11.63
2022-10-01T06:35:41.222Z,12.30
2022-10-01T06:38:09.572Z,11.70
2022-10-01T06:40:37.776Z,12.02
2022-10-01T06:43:07.823Z,11.93
2022-10-01T06:45:38.340Z,12.50
2022-10-01T06:48:08.090Z,11.45
2022-10-01T06:50:35.681Z,13.05
2022-10-01T06:53:03.083Z,12.98
2022-10-01T06:55:33.078Z,12.43
2022-10-01T06:58:02.963Z,12.77
2022-10-01T07:00:32.765Z,12.55
2022-10-01T07:03:01.589Z,12.60
2022-10-01T07:05:29.290Z,12.82
2022-10-01T07:07:56.926Z,13.45
2022-10-01T07:10:24.494Z,13.77
2022-10-01T07:12:51.909Z,11.85
2022-10-01T07:15:21.184Z,11.60
2022-10-01T07:17:49.991Z,12.00
2022-10-01T07:20:18.949Z,11.88
2022-10-01T07:22:47.781Z,12.20
2022-10-01T07:25:15.339Z,11.90
2022-10-01T07:27:42.663Z,12.18
2022-10-01T07:30:10.721Z,12.32
2022-10-01T07:32:38.055Z,11.93
2022-10-01T07:35:06.005Z,12.70
2022-10-01T07:37:33.623Z,11.98
2022-10-01T07:40:05.389Z,13.18
2022-10-01T07:42:35.684Z,12.82
2022-10-01T07:45:06.793Z,12.00
2022-10-01T07:47:34.174Z,12.45
2022-10-01T07:50:02.094Z,13.05
2022-10-01T07:52:29.508Z,12.98
2022-10-01T07:54:56.916Z,14.07
2022-10-01T07:57:24.577Z,13.40
2022-10-01T07:59:55.718Z,12.55
2022-10-01T08:02:23.540Z,13.27
2022-10-01T08:05:09.937Z,13.90
2022-10-01T08:07:37.303Z,14.18
2022-10-01T08:10:05.580Z,14.25
2022-10-01T08:12:32.975Z,13.65
2022-10-01T08:15:02.264Z,13.10
2022-10-01T08:17:30.519Z,14.25
2022-10-01T08:19:57.884Z,15.50
2022-10-01T08:22:25.500Z,15.80
2022-10-01T08:24:53.493Z,15.93
2022-10-01T08:27:20.891Z,14.27
2022-10-01T08:29:48.256Z,17.00
2022-10-01T08:32:15.965Z,16.80
2022-10-01T08:34:43.324Z,16.00
2022-10-01T08:37:10.881Z,17.60
2022-10-01T08:39:38.923Z,15.68
2022-10-01T08:42:44.231Z,16.50
2022-10-01T08:45:36.845Z,16.12
2022-10-01T08:48:39.840Z,17.27
2022-10-01T08:51:10.483Z,17.17
2022-10-01T08:53:48.528Z,17.70
2022-10-01T08:56:28.422Z,17.05
2022-10-01T08:58:58.999Z,16.60
2022-10-01T09:01:27.329Z,17.17
2022-10-01T09:03:54.863Z,18.02
2022-10-01T09:06:25.802Z,18.60
2022-10-01T09:09:02.837Z,18.45
2022-10-01T09:11:42.138Z,18.10
2022-10-01T09:14:28.923Z,18.35
2022-10-01T09:16:58.971Z,17.50
2022-10-01T09:19:47.874Z,18.30
2022-10-01T09:22:33.917Z,17.48
2022-10-01T09:25:24.987Z,18.05
2022-10-01T09:28:00.323Z,18.37
2022-10-01T09:30:29.161Z,17.60
2022-10-01T09:33:02.483Z,17.75
2022-10-01T09:35:45.025Z,17.58
2022-10-01T09:38:31.325Z,16.50
2022-10-01T09:40:59.319Z,17.55
2022-10-01T09:43:29.375Z,17.75
2022-10-01T09:45:57.680Z,17.42
2022-10-01T09:48:34.265Z,17.00
2022-10-01T09:51:10.522Z,17.25
2022-10-01T09:53:43.052Z,19.00
2022-10-01T09:56:19.399Z,17.77
2022-10-01T09:58:50.931Z,18.67
2022-10-01T10:01:24.088Z,17.27
2022-10-01T10:03:56.919Z,16.52
2022-10-01T10:06:27.471Z,15.77
2022-10-01T10:08:57.114Z,16.27
2022-10-01T10:11:27.276Z,16.67
2022-10-01T10:14:00.318Z,17.73
2022-10-01T10:16:29.915Z,17.75
2022-10-01T10:19:09.714Z,18.75
2022-10-01T10:21:37.876Z,17.35
2022-10-01T10:24:18.789Z,18.23
2022-10-01T10:26:56.565Z,16.45
2022-10-01T10:29:32.852Z,16.37
2022-10-01T10:32:06.726Z,12.82
2022-10-01T10:34:38.414Z,10.10
2022-10-01T10:37:12.354Z,9.63
2022-10-01T10:39:41.266Z,9.77
2022-10-01T10:42:08.717Z,9.07
2022-10-01T10:44:39.879Z,9.20
2022-10-01T10:47:11.706Z,7.40
2022-10-01T10:49:51.041Z,7.40
2022-10-01T10:52:23.707Z,6.82
2022-10-01T10:54:54.597Z,6.37
2022-10-01T10:57:30.608Z,7.35
2022-10-01T11:00:12.148Z,7.43
2022-10-01T11:02:41.926Z,7.10
2022-10-01T11:05:19.101Z,7.12
2022-10-01T11:07:48.240Z,5.95
2022-10-01T11:10:30.952Z,5.87
2022-10-01T11:13:20.686Z,6.10
2022-10-01T11:16:17.713Z,5.70
2022-10-01T11:19:21.115Z,5.15
2022-10-01T11:22:19.426Z,5.47
2022-10-01T11:25:14.831Z,4.68
2022-10-01T11:27:43.084Z,4.32
2022-10-01T11:30:24.611Z,4.85
2022-10-01T11:33:03.598Z,3.75
2022-10-01T11:35:45.072Z,4.18
2022-10-01T11:38:30.763Z,3.80
2022-10-01T11:41:13.547Z,4.00
2022-10-01T11:43:44.406Z,4.18
2022-10-01T11:46:27.598Z,4.35
2022-10-01T11:49:02.233Z,4.07
2022-10-01T11:51:35.875Z,3.20
2022-10-01T11:54:07.574Z,3.30
2022-10-01T11:56:59.347Z,3.45
2022-10-01T12:00:09.682Z,3.22
2022-10-01T12:02:50.743Z,3.30
2022-10-01T12:05:21.194Z,3.78
2022-10-01T12:08:09.328Z,3.70
2022-10-01T12:11:19.028Z,3.53
2022-10-01T12:13:55.373Z,3.58
2022-10-01T12:16:38.202Z,3.25
2022-10-01T12:19:25.331Z,3.45
2022-10-01T12:22:00.532Z,3.37
2022-10-01T12:24:35.365Z,3.65
2022-10-01T12:27:24.444Z,3.90
2022-10-01T12:29:54.076Z,3.50
2022-10-01T12:32:25.365Z,3.67
2022-10-01T12:35:00.186Z,3.55
2022-10-01T12:37:32.207Z,3.70
2022-10-01T12:40:21.952Z,3.30
2022-10-01T12:43:27.656Z,3.75
2022-10-01T12:46:13.375Z,3.97
2022-10-01T12:48:48.367Z,3.95
2022-10-01T12:51:45.329Z,3.92
2022-10-01T12:54:39.771Z,4.25
2022-10-01T12:57:33.105Z,4.15
2022-10-01T13:00:19.940Z,3.87
2022-10-01T13:03:06.225Z,3.87
2022-10-01T13:05:52.178Z,3.72
2022-10-01T13:08:51.764Z,3.92
2022-10-01T13:11:40.708Z,3.30
2022-10-01T13:14:13.001Z,3.70
2022-10-01T13:17:04.276Z,3.92
2022-10-01T13:19:45.112Z,3.37
2022-10-01T13:22:17.641Z,4.03
2022-10-01T13:24:50.503Z,3.30
2022-10-01T13:27:28.382Z,3.78
2022-10-01T13:30:03.595Z,4.12
2022-10-01T13:32:35.410Z,3.45
2022-10-01T13:35:24.834Z,3.65
2022-10-01T13:37:52.751Z,4.05
2022-10-01T13:40:32.897Z,5.82
2022-10-01T13:43:20.354Z,6.22
2022-10-01T13:45:49.518Z,5.45
2022-10-01T13:48:23.501Z,9.48
2022-10-01T13:51:11.739Z,10.38
2022-10-01T13:53:42.627Z,11.32
2022-10-01T13:56:15.448Z,10.95
2022-10-01T13:58:45.080Z,12.45
2022-10-01T14:01:24.293Z,12.35
2022-10-01T14:04:19.532Z,12.18
2022-10-01T14:06:54.831Z,12.37
2022-10-01T14:09:40.749Z,11.48
2022-10-01T14:12:34.352Z,10.98
2022-10-01T14:15:35.430Z,10.85
2022-10-01T14:18:14.895Z,10.75
2022-10-01T14:21:09.977Z,11.48
2022-10-01T14:23:46.440Z,11.23
2022-10-01T14:26:32.682Z,11.30
2022-10-01T14:29:06.350Z,11.38
2022-10-01T14:32:00.199Z,11.27
2022-10-01T14:34:47.971Z,10.68
2022-10-01T14:37:17.632Z,10.63
2022-10-01T14:39:45.028Z,10.70
2022-10-01T14:42:17.408Z,11.65
2022-10-01T14:44:46.926Z,11.68
2022-10-01T14:47:20.563Z,11.02
2022-10-01T14:49:49.099Z,9.93
2022-10-01T14:52:29.239Z,11.38
2022-10-01T14:54:56.743Z,10.75
2022-10-01T14:57:27.261Z,11.75
2022-10-01T14:59:55.570Z,11.48
2022-10-01T15:02:25.049Z,13.13
2022-10-01T15:04:55.268Z,12.63
2022-10-01T15:07:24.559Z,13.93
2022-10-01T15:09:52.136Z,14.07
2022-10-01T15:12:21.787Z,12.63
2022-10-01T15:14:53.807Z,11.75
2022-10-01T15:17:25.488Z,10.65
2022-10-01T15:19:55.062Z,9.43
2022-10-01T15:22:26.285Z,9.32
2022-10-01T15:24:58.053Z,9.48
2022-10-01T15:27:26.128Z,9.00
2022-10-01T15:29:56.785Z,9.20
2022-10-01T15:32:25.540Z,8.20
2022-10-01T15:34:55.651Z,9.00
2022-10-01T15:37:35.474Z,7.72
2022-10-01T15:40:05.327Z,7.60
2022-10-01T15:42:36.628Z,6.95
2022-10-01T15:45:06.850Z,7.18
2022-10-01T15:47:37.730Z,7.43
2022-10-01T15:50:04.972Z,7.32
2022-10-01T15:52:50.816Z,6.93
2022-10-01T15:55:28.077Z,7.15
2022-10-01T15:58:29.640Z,7.50
2022-10-01T16:01:07.134Z,7.00
2022-10-01T16:03:36.086Z,6.55
2022-10-01T16:06:05.195Z,5.82
2022-10-01T16:08:37.118Z,7.90
2022-10-01T16:11:09.603Z,6.20
2022-10-01T16:13:39.469Z,4.80
2022-10-01T16:16:13.326Z,5.32
2022-10-01T16:18:41.601Z,5.30
2022-10-01T16:21:11.121Z,5.68
2022-10-01T16:23:49.972Z,5.97
2022-10-01T16:26:27.254Z,5.93
2022-10-01T16:28:55.494Z,5.57
2022-10-01T16:31:24.896Z,5.47
2022-10-01T16:33:52.786Z,5.00
2022-10-01T16:36:21.809Z,5.95
2022-10-01T16:38:49.450Z,5.22
2022-10-01T16:41:25.304Z,6.47
2022-10-01T16:43:55.162Z,6.57
2022-10-01T16:46:22.737Z,6.95
2022-10-01T16:48:53.724Z,5.47
2022-10-01T16:51:21.990Z,5.80
2022-10-01T16:53:50.196Z,5.85
2022-10-01T16:56:18.073Z,5.45
2022-10-01T16:58:46.065Z,6.07
2022-10-01T17:01:14.990Z,7.00
2022-10-01T17:03:42.413Z,6.35
2022-10-01T17:06:10.024Z,5.75
2022-10-01T17:08:37.539Z,5.57
2022-10-01T17:11:06.938Z,4.03
2022-10-01T17:13:37.267Z,3.60
2022-10-01T17:16:06.496Z,2.42
2022-10-01T17:18:33.932Z,2.62
2022-10-01T17:21:05.627Z,3.30
2022-10-01T17:23:35.448Z,2.78
2022-10-01T17:26:05.974Z,3.45
2022-10-01T17:28:33.389Z,3.15
2022-10-01T17:31:00.932Z,3.20
2022-10-01T17:33:28.808Z,3.00
2022-10-01T17:35:56.157Z,3.15
2022-10-01T17:38:23.966Z,3.92
2022-10-01T17:40:56.440Z,3.67
2022-10-01T17:43:24.449Z,4.57
2022-10-01T17:45:56.879Z,4.18
2022-10-01T17:48:25.117Z,4.75
2022-10-01T17:51:22.100Z,4.60
2022-10-01T17:53:49.603Z,5.97
2022-10-01T17:56:18.804Z,5.25
2022-10-01T17:58:46.803Z,5.93
2022-10-01T18:01:17.118Z,4.87
2022-10-01T18:03:45.402Z,4.45
2022-10-01T18:06:14.332Z,5.00
2022-10-01T18:08:54.599Z,5.32
2022-10-01T18:11:25.537Z,5.22
2022-10-01T18:13:53.323Z,5.28
2022-10-01T18:16:21.239Z,5.00
2022-10-01T18:21:42.248Z,5.00
2022-10-01T18:24:10.061Z,5.25
2022-10-01T18:26:37.885Z,4.75
2022-10-01T18:29:05.804Z,4.90
2022-10-01T18:31:39.445Z,5.00
2022-10-01T18:34:26.933Z,5.20
2022-10-01T18:36:59.858Z,5.00
2022-10-01T18:39:33.948Z,5.82
2022-10-01T18:42:10.972Z,5.55
2022-10-01T18:44:38.340Z,4.55
2022-10-01T18:47:10.465Z,5.12
2022-10-01T18:49:50.202Z,5.47
2022-10-01T18:52:26.660Z,5.05
2022-10-01T18:55:20.266Z,5.22
2022-10-01T18:57:48.730Z,5.07
2022-10-01T19:00:18.888Z,5.80
2022-10-01T19:03:18.501Z,7.28
2022-10-01T19:06:17.401Z,5.37
2022-10-01T19:08:54.135Z,5.32
2022-10-01T19:12:03.029Z,4.62
2022-10-01T19:14:55.901Z,5.18
2022-10-01T19:17:31.357Z,5.03
2022-10-01T19:20:43.875Z,4.90
2022-10-01T19:23:42.075Z,4.87
2022-10-01T19:26:18.312Z,4.82
2022-10-01T19:29:15.100Z,5.40
2022-10-01T19:31:53.020Z,5.90
2022-10-01T19:34:28.850Z,5.25
2022-10-01T19:37:10.383Z,5.72
2022-10-01T19:39:39.600Z,5.55
2022-10-01T19:42:14.671Z,5.65
2022-10-01T19:45:05.081Z,5.60
2022-10-01T19:47:50.814Z,5.70
2022-10-01T19:50:22.048Z,5.57
2022-10-01T19:52:51.666Z,4.97
2022-10-01T19:55:21.272Z,4.70
2022-10-01T19:57:49.048Z,5.10
2022-10-01T20:00:21.803Z,5.18
2022-10-01T20:02:54.662Z,4.95
2022-10-01T20:05:28.739Z,5.00
2022-10-01T20:08:05.436Z,4.85
2022-10-01T20:10:48.352Z,5.32
2022-10-01T20:13:41.137Z,5.35
2022-10-01T20:16:33.350Z,4.82
2022-10-01T20:19:11.228Z,4.90
2022-10-01T20:21:46.786Z,4.75
2022-10-01T20:24:46.276Z,4.72
2022-10-01T20:27:28.620Z,4.72
2022-10-01T20:30:04.961Z,5.30
2022-10-01T20:32:47.581Z,5.70
2022-10-01T20:35:48.233Z,5.32
2022-10-01T20:38:24.576Z,5.65
2022-10-01T20:41:00.699Z,5.00
2022-10-01T20:43:51.528Z,4.68
2022-10-01T20:46:33.978Z,4.80
2022-10-01T20:49:05.230Z,4.62
2022-10-01T20:51:36.463Z,4.30
2022-10-01T20:54:10.577Z,4.90
2022-10-01T20:56:42.833Z,4.85
2022-10-01T20:59:25.414Z,5.60
2022-10-01T21:02:02.434Z,5.37
2022-10-01T21:04:37.680Z,5.15
2022-10-01T21:07:14.777Z,5.85
2022-10-01T21:09:46.560Z,5.12
2022-10-01T21:12:21.766Z,5.30
2022-10-01T21:14:55.637Z,4.80
2022-10-01T21:17:41.228Z,4.22
2022-10-01T21:20:39.128Z,4.20
2022-10-01T21:23:26.522Z,3.80
2022-10-01T21:26:04.260Z,3.37
2022-10-01T21:28:51.631Z,3.33
2022-10-01T21:31:37.723Z,2.97
2022-10-01T21:34:28.816Z,2.67
2022-10-01T21:37:06.316Z,2.70
2022-10-01T21:40:06.178Z,2.95
2022-10-01T21:43:04.497Z,2.75
2022-10-01T21:45:48.375Z,2.62
2022-10-01T21:48:33.109Z,2.62
2022-10-01T21:51:23.701Z,3.00
2022-10-01T21:54:34.519Z,3.10
2022-10-01T21:57:22.131Z,3.30
2022-10-01T22:00:22.939Z,3.87
2022-10-01T22:03:07.295Z,4.35
2022-10-01T22:05:50.262Z,4.57
2022-10-01T22:08:30.481Z,3.97
2022-10-01T22:11:01.733Z,3.80
2022-10-01T22:13:33.204Z,3.72
2022-10-01T22:16:03.413Z,4.82
2022-10-01T22:18:38.019Z,3.85
2022-10-01T22:21:10.819Z,4.60
2022-10-01T22:23:42.940Z,4.18
2022-10-01T22:26:17.582Z,4.15
2022-10-01T22:28:49.057Z,4.00
2022-10-01T22:31:20.315Z,3.90
2022-10-01T22:33:53.109Z,3.35
2022-10-01T22:36:54.481Z,3.72
2022-10-01T22:39:24.977Z,3.80
2022-10-01T22:42:03.552Z,3.12
2022-10-01T22:44:31.400Z,3.30
2022-10-01T22:47:20.683Z,3.10
2022-10-01T22:50:30.698Z,3.00
2022-10-01T22:53:17.705Z,3.12
2022-10-01T22:55:57.683Z,3.45
2022-10-01T22:58:40.304Z,2.75
2022-10-01T23:01:20.065Z,3.05
2022-10-01T23:04:06.185Z,2.50
2022-10-01T23:06:40.425Z,2.75
2022-10-01T23:09:29.239Z,3.33
2022-10-01T23:11:59.872Z,3.25
2022-10-01T23:14:49.911Z,3.00
2022-10-01T23:17:20.405Z,2.50
2022-10-01T23:20:09.849Z,2.47
2022-10-01T23:23:06.817Z,1.70
2022-10-01T23:25:50.485Z,2.03
2022-10-01T23:28:54.828Z,1.87
2022-10-01T23:31:27.083Z,2.30
2022-10-01T23:34:29.634Z,2.30
2022-10-01T23:37:24.906Z,2.60
2022-10-01T23:42:35.049Z,2.05
2022-10-01T23:45:27.353Z,2.37
2022-10-01T23:48:18.083Z,2.20
2022-10-01T23:51:19.749Z,2.10
2022-10-01T23:54:13.092Z,1.80
2022-10-01T23:56:50.258Z,1.67
2022-10-01T23:59:49.891Z,1.92
